createdAt,value
2023-05-10T00:00:34.135Z,84.71
2023-05-10T00:01:34.166Z,84.92
2023-05-10T00:02:34.296Z,81.70
2023-05-10T00:03:34.300Z,83.76
2023-05-10T00:04:34.264Z,84.16
2023-05-10T00:05:34.291Z,86.02
2023-05-10T00:06:34.411Z,87.59
2023-05-10T00:07:34.356Z,82.75
2023-05-10T00:08:34.397Z,81.90
2023-05-10T00:09:34.417Z,86.69
2023-05-10T00:10:34.461Z,84.00
2023-05-10T00:11:34.493Z,83.73
2023-05-10T00:12:34.503Z,84.54
2023-05-10T00:13:34.550Z,82.97
2023-05-10T00:14:34.577Z,84.51
2023-05-10T00:15:34.612Z,82.05
2023-05-10T00:16:34.764Z,80.77
2023-05-10T00:17:34.764Z,81.56
2023-05-10T00:18:34.714Z,83.87
2023-05-10T00:19:34.752Z,87.09
2023-05-10T00:20:34.779Z,83.69
2023-05-10T00:21:34.829Z,83.22
2023-05-10T00:22:34.844Z,83.65
2023-05-10T00:23:34.881Z,83.80
2023-05-10T00:24:34.916Z,86.34
2023-05-10T00:25:34.955Z,87.21
2023-05-10T00:26:35.059Z,81.82
2023-05-10T00:27:35.026Z,83.98
2023-05-10T00:28:35.058Z,84.78
2023-05-10T00:29:35.111Z,83.49
2023-05-10T00:30:35.169Z,85.69
2023-05-10T00:31:35.178Z,86.95
2023-05-10T00:32:35.311Z,83.22
2023-05-10T00:33:35.247Z,86.81
2023-05-10T00:34:35.275Z,82.01
2023-05-10T00:35:35.304Z,77.46
2023-05-10T00:36:35.397Z,78.51
2023-05-10T00:37:35.378Z,84.93
2023-05-10T00:38:35.421Z,79.70
2023-05-10T00:39:35.454Z,82.48
2023-05-10T00:40:35.491Z,81.75
2023-05-10T00:41:35.516Z,79.17
2023-05-10T00:42:35.551Z,79.74
2023-05-10T00:43:35.597Z,80.21
2023-05-10T00:44:35.645Z,84.01
2023-05-10T00:45:35.682Z,81.41
2023-05-10T00:46:35.727Z,82.10
2023-05-10T00:47:35.829Z,81.88
2023-05-10T00:48:35.778Z,81.15
2023-05-10T00:49:35.805Z,83.32
2023-05-10T00:50:35.854Z,84.09
2023-05-10T00:51:35.950Z,80.70
2023-05-10T00:52:35.909Z,80.32
2023-05-10T00:53:36.030Z,80.39
2023-05-10T00:54:35.968Z,82.96
2023-05-10T00:55:36.013Z,83.52
2023-05-10T00:56:36.037Z,80.15
2023-05-10T00:57:36.078Z,80.36
2023-05-10T00:58:36.114Z,81.16
2023-05-10T00:59:36.153Z,79.72
2023-05-10T01:00:36.187Z,82.23
2023-05-10T01:01:36.324Z,80.46
2023-05-10T01:02:36.328Z,78.31
2023-05-10T01:03:36.361Z,78.08
2023-05-10T01:04:36.374Z,78.38
2023-05-10T01:05:36.422Z,81.12
2023-05-10T01:06:36.391Z,78.10
2023-05-10T01:07:36.432Z,78.40
2023-05-10T01:08:36.469Z,78.04
2023-05-10T01:09:36.502Z,80.32
2023-05-10T01:10:36.542Z,75.38
2023-05-10T01:11:36.585Z,81.34
2023-05-10T01:12:36.683Z,76.34
2023-05-10T01:13:36.660Z,79.12
2023-05-10T01:14:36.698Z,79.67
2023-05-10T01:15:36.745Z,78.77
2023-05-10T01:16:36.769Z,76.39
2023-05-10T01:17:37.715Z,79.47
2023-05-10T01:18:36.846Z,75.15
2023-05-10T01:19:36.885Z,76.95
2023-05-10T01:20:36.913Z,79.79
2023-05-10T01:21:36.955Z,75.83
2023-05-10T01:22:37.000Z,74.12
2023-05-10T01:23:37.032Z,77.71
2023-05-10T01:24:37.079Z,77.55
2023-05-10T01:25:37.113Z,75.97
2023-05-10T01:26:37.164Z,74.81
2023-05-10T01:27:37.202Z,73.00
2023-05-10T01:28:37.240Z,69.96
2023-05-10T01:29:37.279Z,70.59
2023-05-10T01:30:37.317Z,74.49
2023-05-10T01:31:37.384Z,70.34
2023-05-10T01:32:37.425Z,71.62
2023-05-10T01:33:37.450Z,73.16
2023-05-10T01:34:37.470Z,75.62
2023-05-10T01:35:37.597Z,70.56
2023-05-10T01:36:37.557Z,71.41
2023-05-10T01:37:37.590Z,70.97
2023-05-10T01:38:37.648Z,68.86
2023-05-10T01:39:37.662Z,67.98
2023-05-10T01:40:37.689Z,69.68
2023-05-10T01:41:38.103Z,71.58
2023-05-10T01:42:37.767Z,73.11
2023-05-10T01:43:37.892Z,69.28
2023-05-10T01:44:37.860Z,72.99
2023-05-10T01:45:37.898Z,70.79
2023-05-10T01:46:37.992Z,77.78
2023-05-10T01:47:37.996Z,72.23
2023-05-10T01:48:38.009Z,72.20
2023-05-10T01:49:38.042Z,68.52
2023-05-10T01:50:38.088Z,67.48
2023-05-10T01:51:38.126Z,69.71
2023-05-10T01:52:38.170Z,65.73
2023-05-10T01:53:38.290Z,67.67
2023-05-10T01:54:38.248Z,64.84
2023-05-10T01:55:38.286Z,68.09
2023-05-10T01:56:38.330Z,68.57
2023-05-10T01:57:38.377Z,69.01
2023-05-10T01:58:38.419Z,68.59
2023-05-10T01:59:38.465Z,68.35
2023-05-10T02:00:38.537Z,66.66
2023-05-10T02:01:38.549Z,66.11
2023-05-10T02:02:38.598Z,65.14
2023-05-10T02:03:38.670Z,67.41
2023-05-10T02:04:38.670Z,64.62
2023-05-10T02:05:38.707Z,66.71
2023-05-10T02:06:38.750Z,67.03
2023-05-10T02:07:38.794Z,65.77
2023-05-10T02:08:38.840Z,63.69
2023-05-10T02:09:38.899Z,64.26
2023-05-10T02:10:38.918Z,61.52
2023-05-10T02:11:38.954Z,65.61
2023-05-10T02:12:38.990Z,64.17
2023-05-10T02:13:39.034Z,64.91
2023-05-10T02:14:39.083Z,61.63
2023-05-10T02:15:39.124Z,64.42
2023-05-10T02:16:39.210Z,61.04
2023-05-10T02:17:39.259Z,62.87
2023-05-10T02:18:39.242Z,62.04
2023-05-10T02:19:39.284Z,63.24
2023-05-10T02:20:39.343Z,62.16
2023-05-10T02:21:39.372Z,62.14
2023-05-10T02:22:39.410Z,64.50
2023-05-10T02:23:39.452Z,65.57
2023-05-10T02:24:39.489Z,64.59
2023-05-10T02:25:39.528Z,61.55
2023-05-10T02:26:39.566Z,59.94
2023-05-10T02:27:39.622Z,63.41
2023-05-10T02:28:39.769Z,62.37
2023-05-10T02:29:40.610Z,60.12
2023-05-10T02:30:39.733Z,61.21
2023-05-10T02:31:39.831Z,58.98
2023-05-10T02:32:39.841Z,60.62
2023-05-10T02:33:40.126Z,63.64
2023-05-10T02:34:39.885Z,58.66
2023-05-10T02:35:40.615Z,62.16
2023-05-10T02:36:39.972Z,61.13
2023-05-10T02:37:40.007Z,57.80
2023-05-10T02:38:40.068Z,59.74
2023-05-10T02:39:40.090Z,59.50
2023-05-10T02:40:40.146Z,58.91
2023-05-10T02:41:40.186Z,60.75
2023-05-10T02:42:40.224Z,58.61
2023-05-10T02:43:40.269Z,55.23
2023-05-10T02:44:40.392Z,59.26
2023-05-10T02:45:40.436Z,56.78
2023-05-10T02:46:40.393Z,54.93
2023-05-10T02:47:40.498Z,54.05
2023-05-10T02:48:40.558Z,53.91
2023-05-10T02:49:40.536Z,52.37
2023-05-10T02:50:40.574Z,51.59
2023-05-10T02:51:40.628Z,52.60
2023-05-10T02:52:40.681Z,54.86
2023-05-10T02:53:40.726Z,53.94
2023-05-10T02:54:40.747Z,50.20
2023-05-10T02:55:41.636Z,52.88
2023-05-10T02:56:40.835Z,53.15
2023-05-10T02:57:40.880Z,54.56
2023-05-10T02:58:40.921Z,52.12
2023-05-10T02:59:40.969Z,55.27
2023-05-10T03:00:41.003Z,51.01
2023-05-10T03:01:41.070Z,51.67
2023-05-10T03:02:41.122Z,51.55
2023-05-10T03:03:41.145Z,51.89
2023-05-10T03:04:41.221Z,53.68
2023-05-10T03:05:41.229Z,53.92
2023-05-10T03:06:42.132Z,55.47
2023-05-10T03:07:41.302Z,52.91
2023-05-10T03:08:41.352Z,52.31
2023-05-10T03:09:41.398Z,51.57
2023-05-10T03:10:41.441Z,52.16
2023-05-10T03:11:41.488Z,51.48
2023-05-10T03:12:41.609Z,51.09
2023-05-10T03:13:41.573Z,52.84
2023-05-10T03:14:41.622Z,55.35
2023-05-10T03:15:42.658Z,48.67
2023-05-10T03:16:44.178Z,51.15
2023-05-10T03:17:41.712Z,52.08
2023-05-10T03:18:41.678Z,52.97
2023-05-10T03:19:41.673Z,49.33
2023-05-10T03:20:41.655Z,48.38
2023-05-10T03:21:41.644Z,47.34
2023-05-10T03:22:41.633Z,47.05
2023-05-10T03:23:41.687Z,52.65
2023-05-10T03:24:41.650Z,50.34
2023-05-10T03:25:41.611Z,49.04
2023-05-10T03:26:41.604Z,47.99
2023-05-10T03:27:41.604Z,47.95
2023-05-10T03:28:41.598Z,47.64
2023-05-10T03:29:41.603Z,43.03
2023-05-10T03:30:41.575Z,46.78
2023-05-10T03:31:41.612Z,48.53
2023-05-10T03:32:41.575Z,46.94
2023-05-10T03:33:41.552Z,47.24
2023-05-10T03:34:41.523Z,44.87
2023-05-10T03:35:41.524Z,45.12
2023-05-10T03:36:41.503Z,43.03
2023-05-10T03:37:42.150Z,40.73
2023-05-10T03:38:41.486Z,42.77
2023-05-10T03:39:41.481Z,45.35
2023-05-10T03:40:41.456Z,40.78
2023-05-10T03:41:41.456Z,42.88
2023-05-10T03:42:41.447Z,44.37
2023-05-10T03:43:41.516Z,42.40
2023-05-10T03:44:41.426Z,37.98
2023-05-10T03:45:41.421Z,42.43
2023-05-10T03:46:41.453Z,41.51
2023-05-10T03:47:41.417Z,41.15
2023-05-10T03:48:41.406Z,44.81
2023-05-10T03:49:41.381Z,41.16
2023-05-10T03:50:41.369Z,42.51
2023-05-10T03:51:41.368Z,41.68
2023-05-10T03:52:41.339Z,37.85
2023-05-10T03:53:41.326Z,41.46
2023-05-10T03:54:41.655Z,41.54
2023-05-10T03:55:41.321Z,39.21
2023-05-10T03:56:41.322Z,39.98
2023-05-10T03:57:41.331Z,41.72
2023-05-10T03:58:41.376Z,38.42
2023-05-10T03:59:41.398Z,38.47
2023-05-10T04:00:41.458Z,39.13
2023-05-10T04:01:41.548Z,41.32
2023-05-10T04:02:41.699Z,39.04
2023-05-10T04:03:41.737Z,35.77
2023-05-10T04:04:41.660Z,38.10
2023-05-10T04:05:41.696Z,41.12
2023-05-10T04:06:41.767Z,41.25
2023-05-10T04:07:41.816Z,41.56
2023-05-10T04:08:41.850Z,40.99
2023-05-10T04:09:41.924Z,40.03
2023-05-10T04:10:41.957Z,37.82
2023-05-10T04:11:42.067Z,41.43
2023-05-10T04:12:42.086Z,38.49
2023-05-10T04:13:42.121Z,38.78
2023-05-10T04:14:42.224Z,39.99
2023-05-10T04:15:42.170Z,40.03
2023-05-10T04:16:42.275Z,39.38
2023-05-10T04:17:42.231Z,36.95
2023-05-10T04:18:42.292Z,33.44
2023-05-10T04:19:42.687Z,34.13
2023-05-10T04:20:42.242Z,37.46
2023-05-10T04:21:42.269Z,33.59
2023-05-10T04:22:42.282Z,37.34
2023-05-10T04:23:43.217Z,33.65
2023-05-10T04:24:42.316Z,32.85
2023-05-10T04:25:42.337Z,35.32
2023-05-10T04:26:42.364Z,35.32
2023-05-10T04:27:42.389Z,31.63
2023-05-10T04:28:42.410Z,33.08
2023-05-10T04:29:42.431Z,34.59
2023-05-10T04:30:42.557Z,34.14
2023-05-10T04:31:42.483Z,33.95
2023-05-10T04:32:42.562Z,34.47
2023-05-10T04:33:42.516Z,32.26
2023-05-10T04:34:42.593Z,33.52
2023-05-10T04:35:42.588Z,29.76
2023-05-10T04:36:42.581Z,32.70
2023-05-10T04:37:42.587Z,34.73
2023-05-10T04:38:42.608Z,31.80
2023-05-10T04:39:42.659Z,30.37
2023-05-10T04:40:42.649Z,30.19
2023-05-10T04:41:42.664Z,32.26
2023-05-10T04:42:42.742Z,35.33
2023-05-10T04:43:42.696Z,33.04
2023-05-10T04:44:42.705Z,32.70
2023-05-10T04:45:42.769Z,34.30
2023-05-10T04:46:42.753Z,33.08
2023-05-10T04:47:42.786Z,34.63
2023-05-10T04:48:42.782Z,30.58
2023-05-10T04:49:42.810Z,31.60
2023-05-10T04:50:42.818Z,33.76
2023-05-10T04:51:42.825Z,35.03
2023-05-10T04:52:42.852Z,32.04
2023-05-10T04:53:46.491Z,32.46
2023-05-10T04:54:43.859Z,32.65
2023-05-10T04:55:42.845Z,32.80
2023-05-10T04:56:42.842Z,33.03
2023-05-10T04:57:42.856Z,30.62
2023-05-10T04:58:42.829Z,34.17
2023-05-10T04:59:42.848Z,30.90
2023-05-10T05:00:42.845Z,28.81
2023-05-10T05:01:42.820Z,31.43
2023-05-10T05:02:42.910Z,32.43
2023-05-10T05:03:42.884Z,30.84
2023-05-10T05:04:42.785Z,30.28
2023-05-10T05:05:42.775Z,31.85
2023-05-10T05:06:42.766Z,32.70
2023-05-10T05:07:42.757Z,29.02
2023-05-10T05:08:42.745Z,32.72
2023-05-10T05:09:42.749Z,31.68
2023-05-10T05:10:42.734Z,30.82
2023-05-10T05:11:42.732Z,36.46
2023-05-10T05:12:42.787Z,32.36
2023-05-10T05:13:42.715Z,32.85
2023-05-10T05:14:42.701Z,32.41
2023-05-10T05:15:42.686Z,32.15
2023-05-10T05:16:42.770Z,30.61
2023-05-10T05:17:42.810Z,32.07
2023-05-10T05:18:42.657Z,32.49
2023-05-10T05:19:42.651Z,57.75
2023-05-10T05:20:42.626Z,74.11
2023-05-10T05:21:43.184Z,83.68
2023-05-10T05:22:42.618Z,83.18
2023-05-10T05:23:42.604Z,87.50
2023-05-10T05:24:42.603Z,96.64
2023-05-10T05:25:42.615Z,97.10
2023-05-10T05:26:42.591Z,98.97
2023-05-10T05:27:42.585Z,94.79
2023-05-10T05:28:42.580Z,106.28
2023-05-10T05:29:42.590Z,126.22
2023-05-10T05:30:43.182Z,129.55
2023-05-10T05:31:44.216Z,129.87
2023-05-10T05:32:42.590Z,126.28
2023-05-10T05:33:42.558Z,137.03
2023-05-10T05:34:42.597Z,141.20
2023-05-10T05:35:42.537Z,152.42
2023-05-10T05:36:42.533Z,162.60
2023-05-10T05:37:42.597Z,172.66
2023-05-10T05:38:42.627Z,183.73
2023-05-10T05:39:42.682Z,187.69
2023-05-10T05:40:42.714Z,198.52
2023-05-10T05:41:42.763Z,208.99
2023-05-10T05:42:42.815Z,213.76
2023-05-10T05:43:42.847Z,221.28
2023-05-10T05:44:42.880Z,228.31
2023-05-10T05:45:43.786Z,235.12
2023-05-10T05:46:43.693Z,242.92
2023-05-10T05:47:42.972Z,248.35
2023-05-10T05:48:42.983Z,250.00
2023-05-10T05:49:43.011Z,249.09
2023-05-10T05:50:43.030Z,250.00
2023-05-10T05:51:43.060Z,248.73
2023-05-10T05:52:43.087Z,250.00
2023-05-10T05:53:43.111Z,249.47
2023-05-10T05:54:43.120Z,249.32
2023-05-10T05:55:43.138Z,249.97
2023-05-10T05:56:43.154Z,247.49
2023-05-10T05:57:43.197Z,250.00
2023-05-10T05:58:43.200Z,249.78
2023-05-10T05:59:43.203Z,248.14
2023-05-10T06:00:43.230Z,247.94
2023-05-10T06:01:43.277Z,250.00
2023-05-10T06:02:43.374Z,248.79
2023-05-10T06:03:43.295Z,249.83
2023-05-10T06:04:44.880Z,249.04
2023-05-10T06:05:43.276Z,249.97
2023-05-10T06:06:43.276Z,247.50
2023-05-10T06:07:43.299Z,250.00
2023-05-10T06:08:43.288Z,249.17
2023-05-10T06:09:43.289Z,249.04
2023-05-10T06:10:43.292Z,250.00
2023-05-10T06:11:43.285Z,249.37
2023-05-10T06:12:43.281Z,249.64
2023-05-10T06:13:43.308Z,247.72
2023-05-10T06:14:43.281Z,248.42
2023-05-10T06:15:43.265Z,247.37
2023-05-10T06:16:43.293Z,250.00
2023-05-10T06:17:43.360Z,250.00
2023-05-10T06:18:43.261Z,247.99
2023-05-10T06:19:43.293Z,249.10
2023-05-10T06:20:43.242Z,248.38
2023-05-10T06:21:44.201Z,250.00
2023-05-10T06:22:43.216Z,243.08
2023-05-10T06:23:43.215Z,231.08
2023-05-10T06:24:43.237Z,225.61
2023-05-10T06:25:43.285Z,222.66
2023-05-10T06:26:43.314Z,227.18
2023-05-10T06:27:43.357Z,156.65
2023-05-10T06:28:43.381Z,110.50
2023-05-10T06:29:43.439Z,65.93
2023-05-10T06:30:43.459Z,30.46
2023-05-10T06:31:43.681Z,17.40
2023-05-10T06:32:43.543Z,20.20
2023-05-10T06:33:43.625Z,18.64
2023-05-10T06:34:43.682Z,17.63
2023-05-10T06:35:44.713Z,24.62
2023-05-10T06:36:43.792Z,25.00
2023-05-10T06:37:43.925Z,25.00
2023-05-10T06:38:43.927Z,25.42
2023-05-10T06:39:43.989Z,26.67
2023-05-10T06:40:44.055Z,29.84
2023-05-10T06:41:44.071Z,34.02
2023-05-10T06:42:44.092Z,40.85
2023-05-10T06:43:44.156Z,50.43
2023-05-10T06:44:44.200Z,52.54
2023-05-10T06:45:44.213Z,58.91
2023-05-10T06:46:44.326Z,62.39
2023-05-10T06:47:44.296Z,68.19
2023-05-10T06:48:44.323Z,73.82
2023-05-10T06:49:44.377Z,77.71
2023-05-10T06:50:44.437Z,83.44
2023-05-10T06:51:44.466Z,85.79
2023-05-10T06:52:44.485Z,91.30
2023-05-10T06:53:44.469Z,95.77
2023-05-10T06:54:44.490Z,71.42
2023-05-10T06:55:44.547Z,45.91
2023-05-10T06:56:44.582Z,31.29
2023-05-10T06:57:44.599Z,23.24
2023-05-10T06:58:44.672Z,22.29
2023-05-10T06:59:45.294Z,25.28
2023-05-10T07:00:44.900Z,25.49
2023-05-10T07:01:44.869Z,29.70
2023-05-10T07:02:44.897Z,27.89
2023-05-10T07:03:44.957Z,28.55
2023-05-10T07:04:45.047Z,27.12
2023-05-10T07:05:45.018Z,26.98
2023-05-10T07:06:45.014Z,26.21
2023-05-10T07:07:45.038Z,25.78
2023-05-10T07:08:45.017Z,25.42
2023-05-10T07:09:45.052Z,26.28
2023-05-10T07:10:45.097Z,25.95
2023-05-10T07:11:45.159Z,26.04
2023-05-10T07:12:45.410Z,25.00
2023-05-10T07:13:45.330Z,24.65
2023-05-10T07:14:45.349Z,25.00
2023-05-10T07:15:45.409Z,26.60
2023-05-10T07:16:45.711Z,29.87
2023-05-10T07:17:46.090Z,32.67
2023-05-10T07:18:45.544Z,37.53
2023-05-10T07:19:45.621Z,38.86
2023-05-10T07:20:46.318Z,44.26
2023-05-10T07:21:45.765Z,46.42
2023-05-10T07:22:45.794Z,55.55
2023-05-10T07:23:45.848Z,58.71
2023-05-10T07:24:45.893Z,64.50
2023-05-10T07:25:45.919Z,67.73
2023-05-10T07:26:45.960Z,65.72
2023-05-10T07:27:45.987Z,66.09
2023-05-10T07:28:46.729Z,66.25
2023-05-10T07:29:46.081Z,68.00
2023-05-10T07:30:46.103Z,66.70
2023-05-10T07:31:46.197Z,66.27
2023-05-10T07:32:46.208Z,67.66
2023-05-10T07:33:46.191Z,72.98
2023-05-10T07:34:46.233Z,72.29
2023-05-10T07:35:46.257Z,72.76
2023-05-10T07:36:46.278Z,73.67
2023-05-10T07:37:46.293Z,74.89
2023-05-10T07:38:46.328Z,74.43
2023-05-10T07:39:46.359Z,78.42
2023-05-10T07:40:46.377Z,83.16
2023-05-10T07:41:46.397Z,80.70
2023-05-10T07:42:46.422Z,79.95
2023-05-10T07:43:46.513Z,82.56
2023-05-10T07:44:46.441Z,87.59
2023-05-10T07:45:46.503Z,90.81
2023-05-10T07:46:46.485Z,89.13
2023-05-10T07:47:46.498Z,90.24
2023-05-10T07:48:46.499Z,84.74
2023-05-10T07:49:46.516Z,83.14
2023-05-10T07:50:46.540Z,86.77
2023-05-10T07:51:46.618Z,86.75
2023-05-10T07:52:46.605Z,85.15
2023-05-10T07:53:46.562Z,84.59
2023-05-10T07:54:46.584Z,82.57
2023-05-10T07:55:46.603Z,93.21
2023-05-10T07:56:46.591Z,88.76
2023-05-10T07:57:46.608Z,81.80
2023-05-10T07:58:46.610Z,88.24
2023-05-10T07:59:46.764Z,88.94
2023-05-10T08:00:46.609Z,86.66
2023-05-10T08:01:46.620Z,82.45
2023-05-10T08:02:47.722Z,82.46
2023-05-10T08:03:46.693Z,66.16
2023-05-10T08:04:46.675Z,56.82
2023-05-10T08:05:46.581Z,48.90
2023-05-10T08:06:46.583Z,43.14
2023-05-10T08:07:46.581Z,36.53
2023-05-10T08:08:46.590Z,30.65
2023-05-10T08:09:46.580Z,30.51
2023-05-10T08:10:46.585Z,27.96
2023-05-10T08:11:46.566Z,29.30
2023-05-10T08:12:46.553Z,28.97
2023-05-10T08:13:46.562Z,27.88
2023-05-10T08:14:46.550Z,29.24
2023-05-10T08:15:46.572Z,37.65
2023-05-10T08:16:46.531Z,32.13
2023-05-10T08:17:46.562Z,24.85
2023-05-10T08:18:46.651Z,25.44
2023-05-10T08:19:46.779Z,26.85
2023-05-10T08:20:46.654Z,25.33
2023-05-10T08:21:46.669Z,25.39
2023-05-10T08:22:47.019Z,26.60
2023-05-10T08:23:46.838Z,25.00
2023-05-10T08:24:46.838Z,30.54
2023-05-10T08:25:46.891Z,30.59
2023-05-10T08:26:46.960Z,25.00
2023-05-10T08:27:47.012Z,29.75
2023-05-10T08:28:47.087Z,37.53
2023-05-10T08:29:50.411Z,47.39
2023-05-10T08:30:47.145Z,52.04
2023-05-10T08:31:47.279Z,57.81
2023-05-10T08:32:47.259Z,65.80
2023-05-10T08:33:47.158Z,70.81
2023-05-10T08:34:47.749Z,77.44
2023-05-10T08:35:47.146Z,81.55
2023-05-10T08:36:47.123Z,85.72
2023-05-10T08:37:47.188Z,89.42
2023-05-10T08:38:47.182Z,91.99
2023-05-10T08:39:47.161Z,96.30
2023-05-10T08:40:47.123Z,93.87
2023-05-10T08:41:47.108Z,95.06
2023-05-10T08:42:47.105Z,100.98
2023-05-10T08:43:47.126Z,104.93
2023-05-10T08:44:49.352Z,108.11
2023-05-10T08:45:47.248Z,108.27
2023-05-10T08:46:47.344Z,108.98
2023-05-10T08:47:47.373Z,109.63
2023-05-10T08:48:47.461Z,111.89
2023-05-10T08:49:47.432Z,116.70
2023-05-10T08:50:47.505Z,121.45
2023-05-10T08:51:47.544Z,121.81
2023-05-10T08:52:47.605Z,124.44
2023-05-10T08:53:47.666Z,125.55
2023-05-10T08:54:47.713Z,126.62
2023-05-10T08:55:47.859Z,125.57
2023-05-10T08:56:49.750Z,129.43
2023-05-10T08:57:47.889Z,129.29
2023-05-10T08:58:48.002Z,132.60
2023-05-10T08:59:47.982Z,132.35
2023-05-10T09:00:48.049Z,133.41
2023-05-10T09:01:48.075Z,134.55
2023-05-10T09:02:48.149Z,137.36
2023-05-10T09:03:48.252Z,137.81
2023-05-10T09:04:48.281Z,139.94
2023-05-10T09:05:48.283Z,140.72
2023-05-10T09:06:48.323Z,140.77
2023-05-10T09:07:48.368Z,142.25
2023-05-10T09:08:48.430Z,143.01
2023-05-10T09:09:48.464Z,144.82
2023-05-10T09:10:48.594Z,141.24
2023-05-10T09:11:48.551Z,142.81
2023-05-10T09:12:48.657Z,143.95
2023-05-10T09:13:48.620Z,146.13
2023-05-10T09:14:48.657Z,145.96
2023-05-10T09:15:48.708Z,145.59
2023-05-10T09:16:48.830Z,143.20
2023-05-10T09:17:48.854Z,134.74
2023-05-10T09:18:48.853Z,129.08
2023-05-10T09:19:48.916Z,129.44
2023-05-10T09:20:48.953Z,134.04
2023-05-10T09:21:49.000Z,141.56
2023-05-10T09:22:49.061Z,149.86
2023-05-10T09:23:49.106Z,161.37
2023-05-10T09:24:49.159Z,163.65
2023-05-10T09:25:49.217Z,160.85
2023-05-10T09:26:49.439Z,159.63
2023-05-10T09:27:49.344Z,157.40
2023-05-10T09:28:49.365Z,155.69
2023-05-10T09:29:50.277Z,157.35
2023-05-10T09:30:49.503Z,155.99
2023-05-10T09:31:50.268Z,155.55
2023-05-10T09:32:49.637Z,153.44
2023-05-10T09:33:49.621Z,156.20
2023-05-10T09:34:49.684Z,156.62
2023-05-10T09:35:49.717Z,155.57
2023-05-10T09:36:49.768Z,157.82
2023-05-10T09:37:49.824Z,158.32
2023-05-10T09:38:49.889Z,157.82
2023-05-10T09:39:49.929Z,158.49
2023-05-10T09:40:49.989Z,159.39
2023-05-10T09:41:50.032Z,160.74
2023-05-10T09:42:50.097Z,160.39
2023-05-10T09:43:50.163Z,162.29
2023-05-10T09:44:50.215Z,162.30
2023-05-10T09:45:50.271Z,163.04
2023-05-10T09:46:50.321Z,162.54
2023-05-10T09:47:50.432Z,163.73
2023-05-10T09:48:50.436Z,164.06
2023-05-10T09:49:50.495Z,165.77
2023-05-10T09:50:50.554Z,164.92
2023-05-10T09:51:50.706Z,164.77
2023-05-10T09:52:51.207Z,164.70
2023-05-10T09:53:50.719Z,165.67
2023-05-10T09:54:51.286Z,165.72
2023-05-10T09:55:50.835Z,166.06
2023-05-10T09:56:50.903Z,164.99
2023-05-10T09:57:50.964Z,166.07
2023-05-10T09:58:50.999Z,165.72
2023-05-10T09:59:51.070Z,168.49
2023-05-10T10:00:51.128Z,167.52
2023-05-10T10:01:51.238Z,167.15
2023-05-10T10:02:51.818Z,168.19
2023-05-10T10:03:51.305Z,167.33
2023-05-10T10:04:51.413Z,168.75
2023-05-10T10:05:51.426Z,169.28
2023-05-10T10:06:51.468Z,170.01
2023-05-10T10:07:51.511Z,168.70
2023-05-10T10:08:51.573Z,168.93
2023-05-10T10:09:52.294Z,168.81
2023-05-10T10:10:51.717Z,168.90
2023-05-10T10:11:51.748Z,168.73
2023-05-10T10:12:51.804Z,169.42
2023-05-10T10:13:52.800Z,169.90
2023-05-10T10:14:51.934Z,170.41
2023-05-10T10:15:52.184Z,169.90
2023-05-10T10:17:05.491Z,171.39
2023-05-10T10:17:53.165Z,171.46
2023-05-10T10:18:52.097Z,170.36
2023-05-10T10:19:52.027Z,171.71
2023-05-10T10:20:52.012Z,171.72
2023-05-10T10:21:52.010Z,170.51
2023-05-10T10:22:52.005Z,171.72
2023-05-10T10:23:52.003Z,171.58
2023-05-10T10:24:51.985Z,169.94
2023-05-10T10:25:51.981Z,171.68
2023-05-10T10:26:52.032Z,172.11
2023-05-10T10:27:52.167Z,170.35
2023-05-10T10:28:52.130Z,171.60
2023-05-10T10:29:52.174Z,173.21
2023-05-10T10:30:52.237Z,174.12
2023-05-10T10:31:52.329Z,172.41
2023-05-10T10:32:52.475Z,172.79
2023-05-10T10:33:52.379Z,172.39
2023-05-10T10:34:52.432Z,172.63
2023-05-10T10:35:52.474Z,173.57
2023-05-10T10:36:52.502Z,172.64
2023-05-10T10:37:52.645Z,174.04
2023-05-10T10:38:52.597Z,173.28
2023-05-10T10:39:52.650Z,172.39
2023-05-10T10:40:52.705Z,173.39
2023-05-10T10:41:52.756Z,173.06
2023-05-10T10:42:52.808Z,174.45
2023-05-10T10:43:52.863Z,174.32
2023-05-10T10:44:52.923Z,172.74
2023-05-10T10:45:53.001Z,173.96
2023-05-10T10:46:53.103Z,173.28
2023-05-10T10:47:53.136Z,172.76
2023-05-10T10:48:53.177Z,173.56
2023-05-10T10:49:53.247Z,172.22
2023-05-10T10:50:53.316Z,174.11
2023-05-10T10:51:53.448Z,172.77
2023-05-10T10:52:53.489Z,172.28
2023-05-10T10:53:53.508Z,172.73
2023-05-10T10:54:53.527Z,173.71
2023-05-10T10:55:53.574Z,173.43
2023-05-10T10:56:53.636Z,173.72
2023-05-10T10:57:53.684Z,172.84
2023-05-10T10:58:53.746Z,173.45
2023-05-10T10:59:53.803Z,172.48
2023-05-10T11:00:53.955Z,173.16
2023-05-10T11:01:54.319Z,173.83
2023-05-10T11:02:54.006Z,174.36
2023-05-10T11:03:54.096Z,174.26
2023-05-10T11:04:54.136Z,173.60
2023-05-10T11:05:54.149Z,173.39
2023-05-10T11:06:54.202Z,173.55
2023-05-10T11:07:54.325Z,174.58
2023-05-10T11:08:54.324Z,174.23
2023-05-10T11:09:54.364Z,173.89
2023-05-10T11:10:54.433Z,174.37
2023-05-10T11:11:54.463Z,174.02
2023-05-10T11:12:54.465Z,174.04
2023-05-10T11:13:54.492Z,174.16
2023-05-10T11:14:54.528Z,172.82
2023-05-10T11:15:54.593Z,174.11
2023-05-10T11:16:54.647Z,174.21
2023-05-10T11:17:54.704Z,174.00
2023-05-10T11:18:54.702Z,174.54
2023-05-10T11:19:54.722Z,173.22
2023-05-10T11:20:54.769Z,173.53
2023-05-10T11:21:54.788Z,173.82
2023-05-10T11:22:54.835Z,173.71
2023-05-10T11:23:54.895Z,174.45
2023-05-10T11:24:55.090Z,173.28
2023-05-10T11:25:54.984Z,174.59
2023-05-10T11:26:55.022Z,173.96
2023-05-10T11:27:55.057Z,173.49
2023-05-10T11:28:55.099Z,173.88
2023-05-10T11:29:55.164Z,173.67
2023-05-10T11:30:55.212Z,173.70
2023-05-10T11:31:55.253Z,173.53
2023-05-10T11:32:55.339Z,173.59
2023-05-10T11:33:55.327Z,174.26
2023-05-10T11:34:55.383Z,174.75
2023-05-10T11:35:55.453Z,173.30
2023-05-10T11:36:55.485Z,174.24
2023-05-10T11:37:55.551Z,173.47
2023-05-10T11:38:55.593Z,173.94
2023-05-10T11:39:55.629Z,173.55
2023-05-10T11:40:55.695Z,174.12
2023-05-10T11:41:55.725Z,174.15
2023-05-10T11:42:55.758Z,173.99
2023-05-10T11:43:55.813Z,174.32
2023-05-10T11:44:55.850Z,175.08
2023-05-10T11:45:55.955Z,172.76
2023-05-10T11:46:55.920Z,175.30
2023-05-10T11:47:56.003Z,172.95
2023-05-10T11:48:55.967Z,174.30
2023-05-10T11:49:56.089Z,173.20
2023-05-10T11:50:56.023Z,173.70
2023-05-10T11:51:56.049Z,174.59
2023-05-10T11:52:56.099Z,173.05
2023-05-10T11:53:56.171Z,173.81
2023-05-10T11:54:56.186Z,173.26
2023-05-10T11:55:56.171Z,172.65
2023-05-10T11:56:56.174Z,171.94
2023-05-10T11:57:56.186Z,172.10
2023-05-10T11:58:56.205Z,173.94
2023-05-10T11:59:56.243Z,171.90
2023-05-10T12:00:56.290Z,173.33
2023-05-10T12:01:56.257Z,173.16
2023-05-10T12:02:56.368Z,171.48
2023-05-10T12:03:57.004Z,173.26
2023-05-10T12:04:56.884Z,171.79
2023-05-10T12:05:56.275Z,171.15
2023-05-10T12:06:56.315Z,173.59
2023-05-10T12:07:56.339Z,171.72
2023-05-10T12:08:56.361Z,171.48
2023-05-10T12:09:56.365Z,172.26
2023-05-10T12:10:56.859Z,171.88
2023-05-10T12:11:56.430Z,171.53
2023-05-10T12:12:56.441Z,172.73
2023-05-10T12:13:56.459Z,171.67
2023-05-10T12:14:56.459Z,171.32
2023-05-10T12:15:56.516Z,170.78
2023-05-10T12:16:56.565Z,171.24
2023-05-10T12:17:56.493Z,170.86
2023-05-10T12:18:56.548Z,169.86
2023-05-10T12:19:56.498Z,171.95
2023-05-10T12:20:56.509Z,169.53
2023-05-10T12:21:56.511Z,170.94
2023-05-10T12:22:57.810Z,170.27
2023-05-10T12:23:56.494Z,171.40
2023-05-10T12:24:56.495Z,170.30
2023-05-10T12:25:56.477Z,169.59
2023-05-10T12:26:56.490Z,171.74
2023-05-10T12:27:56.464Z,177.35
2023-05-10T12:28:56.461Z,176.85
2023-05-10T12:29:56.469Z,178.28
2023-05-10T12:30:56.482Z,178.30
2023-05-10T12:31:56.512Z,182.81
2023-05-10T12:32:56.957Z,188.14
2023-05-10T12:33:56.472Z,193.66
2023-05-10T12:34:56.478Z,194.42
2023-05-10T12:35:56.403Z,194.89
2023-05-10T12:36:56.409Z,194.97
2023-05-10T12:37:57.359Z,193.86
2023-05-10T12:38:56.411Z,194.54
2023-05-10T12:39:56.392Z,190.42
2023-05-10T12:40:56.405Z,189.48
2023-05-10T12:41:56.866Z,184.20
2023-05-10T12:42:56.442Z,183.59